Terminal Aerodrome Forecast
Issued by NWS Paducah, KY

Home | Current Version | Previous Version | Text Only | Print | Product List | Glossary On
Versions: 1 2 3 4 5 6 7 8 9 10 11 12 13 14 15
047
FTUS43 KPAH 231036 AAA
TAFEVV
TAF AMD
KEVV 231036Z 2311/2406 00000KT 3SM BR SKC
      TEMPO 2311/2313 1SM BR BCFG
     FM231300 17005KT P6SM SCT200=

USA.gov is the U.S. government's official web portal to all federal, state and local government web resources and services.